sensor_id;sensor_type;location;lat;lon;timestamp;pressure;altitude;pressure_sealevel;temperature;humidity
37878;BME280;23715;53.652;8.516;2022-09-16T00:00:21;100627.53;;;16.87;100.00
37878;BME280;23715;53.652;8.516;2022-09-16T00:05:22;100635.03;;;17.54;100.00
37878;BME280;23715;53.652;8.516;2022-09-16T00:10:22;100634.38;;;17.06;100.00
37878;BME280;23715;53.652;8.516;2022-09-16T00:15:23;100623.75;;;16.96;100.00
37878;BME280;23715;53.652;8.516;2022-09-16T00:20:23;100606.21;;;17.49;100.00
37878;BME280;23715;53.652;8.516;2022-09-16T00:25:23;100641.34;;;17.55;100.00
37878;BME280;23715;53.652;8.516;2022-09-16T00:30:23;100632.33;;;17.31;100.00
37878;BME280;23715;53.652;8.516;2022-09-16T00:35:23;100628.71;;;16.81;100.00
37878;BME280;23715;53.652;8.516;2022-09-16T00:40:24;100639.48;;;16.26;100.00
37878;BME280;23715;53.652;8.516;2022-09-16T00:45:25;100627.47;;;16.16;100.00
37878;BME280;23715;53.652;8.516;2022-09-16T00:55:40;100636.11;;;16.12;100.00
37878;BME280;23715;53.652;8.516;2022-09-16T01:00:41;100632.24;;;15.36;100.00
37878;BME280;23715;53.652;8.516;2022-09-16T01:05:43;100621.55;;;16.00;100.00
37878;BME280;23715;53.652;8.516;2022-09-16T01:10:44;100629.68;;;16.05;100.00
37878;BME280;23715;53.652;8.516;2022-09-16T01:26:37;100614.77;;;16.56;100.00
37878;BME280;23715;53.652;8.516;2022-09-16T01:31:38;100613.03;;;16.59;100.00
37878;BME280;23715;53.652;8.516;2022-09-16T01:36:50;100620.72;;;15.38;100.00
37878;BME280;23715;53.652;8.516;2022-09-16T01:42:09;100612.27;;;15.87;100.00
37878;BME280;23715;53.652;8.516;2022-09-16T01:57:45;100593.34;;;16.62;100.00
37878;BME280;23715;53.652;8.516;2022-09-16T02:02:54;100639.80;;;14.88;100.00
37878;BME280;23715;53.652;8.516;2022-09-16T02:07:58;100634.73;;;14.54;100.00
37878;BME280;23715;53.652;8.516;2022-09-16T02:13:04;100639.02;;;15.36;100.00
37878;BME280;23715;53.652;8.516;2022-09-16T02:18:09;100640.37;;;15.24;100.00
37878;BME280;23715;53.652;8.516;2022-09-16T02:23:16;100637.86;;;15.76;100.00
37878;BME280;23715;53.652;8.516;2022-09-16T02:28:19;100620.34;;;16.59;100.00
37878;BME280;23715;53.652;8.516;2022-09-16T02:33:20;100605.38;;;16.32;100.00
37878;BME280;23715;53.652;8.516;2022-09-16T02:38:29;100607.45;;;16.13;100.00
37878;BME280;23715;53.652;8.516;2022-09-16T02:43:28;100620.72;;;15.38;100.00
37878;BME280;23715;53.652;8.516;2022-09-16T02:48:41;100617.83;;;15.15;100.00
37878;BME280;23715;53.652;8.516;2022-09-16T02:53:46;100630.06;;;15.73;100.00
37878;BME280;23715;53.652;8.516;2022-09-16T02:58:47;100621.42;;;15.53;100.00
37878;BME280;23715;53.652;8.516;2022-09-16T03:03:47;100601.26;;;15.64;100.00
37878;BME280;23715;53.652;8.516;2022-09-16T03:08:48;100597.55;;;15.48;100.00
37878;BME280;23715;53.652;8.516;2022-09-16T03:14:08;100579.02;;;15.97;100.00
37878;BME280;23715;53.652;8.516;2022-09-16T03:30:04;100573.28;;;15.63;100.00
37878;BME280;23715;53.652;8.516;2022-09-16T03:35:32;100563.32;;;15.31;100.00
37878;BME280;23715;53.652;8.516;2022-09-16T03:40:29;100562.62;;;15.57;100.00
37878;BME280;23715;53.652;8.516;2022-09-16T03:45:31;100557.88;;;15.55;100.00
37878;BME280;23715;53.652;8.516;2022-09-16T03:50:31;100557.31;;;15.97;100.00
37878;BME280;23715;53.652;8.516;2022-09-16T03:55:32;100557.23;;;16.22;100.00
37878;BME280;23715;53.652;8.516;2022-09-16T04:00:32;100553.20;;;16.13;100.00
37878;BME280;23715;53.652;8.516;2022-09-16T04:05:32;100555.96;;;15.97;100.00
37878;BME280;23715;53.652;8.516;2022-09-16T04:10:32;100552.53;;;16.11;100.00
37878;BME280;23715;53.652;8.516;2022-09-16T04:15:35;100542.95;;;16.32;100.00
37878;BME280;23715;53.652;8.516;2022-09-16T04:20:37;100546.23;;;16.19;100.00
37878;BME280;23715;53.652;8.516;2022-09-16T04:25:38;100544.14;;;15.81;100.00
37878;BME280;23715;53.652;8.516;2022-09-16T04:30:39;100536.95;;;16.09;100.00
37878;BME280;23715;53.652;8.516;2022-09-16T04:35:39;100555.30;;;15.95;100.00
37878;BME280;23715;53.652;8.516;2022-09-16T04:40:40;100547.04;;;15.55;100.00
37878;BME280;23715;53.652;8.516;2022-09-16T04:45:40;100541.11;;;15.64;100.00
37878;BME280;23715;53.652;8.516;2022-09-16T04:50:40;100525.16;;;15.90;100.00
37878;BME280;23715;53.652;8.516;2022-09-16T04:55:41;100518.65;;;16.07;100.00
37878;BME280;23715;53.652;8.516;2022-09-16T05:00:42;100518.85;;;16.33;100.00
37878;BME280;23715;53.652;8.516;2022-09-16T05:05:43;100523.88;;;16.44;100.00
37878;BME280;23715;53.652;8.516;2022-09-16T05:10:43;100516.72;;;16.51;100.00
37878;BME280;23715;53.652;8.516;2022-09-16T05:15:43;100499.98;;;16.44;100.00
37878;BME280;23715;53.652;8.516;2022-09-16T05:20:44;100548.23;;;15.77;100.00
37878;BME280;23715;53.652;8.516;2022-09-16T05:25:44;100549.29;;;15.31;100.00
37878;BME280;23715;53.652;8.516;2022-09-16T05:30:44;100532.14;;;15.64;100.00
37878;BME280;23715;53.652;8.516;2022-09-16T05:35:45;100540.16;;;15.16;100.00
37878;BME280;23715;53.652;8.516;2022-09-16T05:40:45;100529.72;;;15.89;100.00
37878;BME280;23715;53.652;8.516;2022-09-16T05:45:50;100535.17;;;15.65;100.00
37878;BME280;23715;53.652;8.516;2022-09-16T05:51:00;100518.22;;;16.58;100.00
37878;BME280;23715;53.652;8.516;2022-09-16T05:56:06;100529.75;;;15.73;100.00
37878;BME280;23715;53.652;8.516;2022-09-16T06:01:13;100519.59;;;16.23;100.00
37878;BME280;23715;53.652;8.516;2022-09-16T06:06:26;100532.28;;;15.87;100.00
37878;BME280;23715;53.652;8.516;2022-09-16T06:11:27;100531.06;;;15.97;100.00
37878;BME280;23715;53.652;8.516;2022-09-16T06:16:28;100514.44;;;16.36;100.00
37878;BME280;23715;53.652;8.516;2022-09-16T06:21:31;100503.27;;;16.31;100.00
37878;BME280;23715;53.652;8.516;2022-09-16T06:26:31;100510.85;;;16.67;100.00
37878;BME280;23715;53.652;8.516;2022-09-16T06:31:32;100510.81;;;16.16;100.00
37878;BME280;23715;53.652;8.516;2022-09-16T06:36:36;100494.63;;;16.58;100.00
37878;BME280;23715;53.652;8.516;2022-09-16T06:41:38;100496.83;;;17.28;100.00
37878;BME280;23715;53.652;8.516;2022-09-16T06:46:39;100488.98;;;17.63;100.00
37878;BME280;23715;53.652;8.516;2022-09-16T06:51:39;100488.93;;;17.67;100.00
37878;BME280;23715;53.652;8.516;2022-09-16T06:56:40;100487.33;;;17.58;100.00
37878;BME280;23715;53.652;8.516;2022-09-16T07:01:41;100487.45;;;17.80;100.00
37878;BME280;23715;53.652;8.516;2022-09-16T07:06:41;100501.34;;;17.17;100.00
37878;BME280;23715;53.652;8.516;2022-09-16T07:11:41;100504.45;;;17.10;100.00
37878;BME280;23715;53.652;8.516;2022-09-16T07:16:41;100515.70;;;16.79;100.00
37878;BME280;23715;53.652;8.516;2022-09-16T07:21:42;100518.47;;;16.05;100.00
37878;BME280;23715;53.652;8.516;2022-09-16T07:26:43;100522.88;;;16.45;100.00
37878;BME280;23715;53.652;8.516;2022-09-16T07:31:44;100517.83;;;15.98;100.00
37878;BME280;23715;53.652;8.516;2022-09-16T07:36:46;100508.48;;;16.05;100.00
37878;BME280;23715;53.652;8.516;2022-09-16T07:41:47;100532.55;;;16.04;100.00
37878;BME280;23715;53.652;8.516;2022-09-16T07:46:48;100529.97;;;15.14;100.00
37878;BME280;23715;53.652;8.516;2022-09-16T07:51:49;100527.22;;;15.67;100.00
37878;BME280;23715;53.652;8.516;2022-09-16T07:56:49;100520.90;;;16.31;100.00
37878;BME280;23715;53.652;8.516;2022-09-16T08:01:49;100508.88;;;17.07;100.00
37878;BME280;23715;53.652;8.516;2022-09-16T08:06:49;100511.77;;;17.28;100.00
37878;BME280;23715;53.652;8.516;2022-09-16T08:11:49;100511.69;;;17.36;100.00
37878;BME280;23715;53.652;8.516;2022-09-16T08:16:50;100545.37;;;16.58;100.00
37878;BME280;23715;53.652;8.516;2022-09-16T08:21:50;100520.30;;;15.44;100.00
37878;BME280;23715;53.652;8.516;2022-09-16T08:26:51;100529.58;;;15.83;100.00
37878;BME280;23715;53.652;8.516;2022-09-16T08:31:51;100523.59;;;16.35;100.00
37878;BME280;23715;53.652;8.516;2022-09-16T08:36:54;100516.77;;;16.70;100.00
37878;BME280;23715;53.652;8.516;2022-09-16T08:47:41;100530.38;;;16.66;100.00
37878;BME280;23715;53.652;8.516;2022-09-16T08:52:42;100512.84;;;16.77;100.00
37878;BME280;23715;53.652;8.516;2022-09-16T08:57:55;100506.89;;;16.77;100.00
37878;BME280;23715;53.652;8.516;2022-09-16T09:03:17;100522.24;;;17.50;100.00
37878;BME280;23715;53.652;8.516;2022-09-16T09:08:55;100556.83;;;16.41;100.00
37878;BME280;23715;53.652;8.516;2022-09-16T09:14:25;100526.65;;;16.36;100.00
37878;BME280;23715;53.652;8.516;2022-09-16T09:19:31;100507.95;;;16.45;100.00
37878;BME280;23715;53.652;8.516;2022-09-16T09:29:47;100502.17;;;17.17;100.00
37878;BME280;23715;53.652;8.516;2022-09-16T09:34:59;100499.27;;;17.72;100.00
37878;BME280;23715;53.652;8.516;2022-09-16T09:45:30;100492.41;;;18.06;100.00
37878;BME280;23715;53.652;8.516;2022-09-16T09:50:36;100492.84;;;18.50;100.00
37878;BME280;23715;53.652;8.516;2022-09-16T09:55:37;100490.80;;;18.11;100.00
37878;BME280;23715;53.652;8.516;2022-09-16T10:00:38;100508.08;;;16.20;100.00
37878;BME280;23715;53.652;8.516;2022-09-16T10:05:40;100517.45;;;16.45;100.00
37878;BME280;23715;53.652;8.516;2022-09-16T10:10:52;100511.33;;;17.02;100.00
37878;BME280;23715;53.652;8.516;2022-09-16T10:15:54;100482.69;;;17.48;100.00
37878;BME280;23715;53.652;8.516;2022-09-16T10:21:04;100488.78;;;17.50;100.00
37878;BME280;23715;53.652;8.516;2022-09-16T10:31:18;100492.64;;;16.52;100.00
37878;BME280;23715;53.652;8.516;2022-09-16T10:36:21;100495.64;;;16.57;100.00
37878;BME280;23715;53.652;8.516;2022-09-16T10:41:24;100502.78;;;16.82;100.00
37878;BME280;23715;53.652;8.516;2022-09-16T10:46:26;100489.27;;;16.46;100.00
37878;BME280;23715;53.652;8.516;2022-09-16T10:51:29;100476.01;;;17.21;100.00
37878;BME280;23715;53.652;8.516;2022-09-16T10:56:33;100479.20;;;17.39;100.00
37878;BME280;23715;53.652;8.516;2022-09-16T11:01:54;100460.34;;;17.42;100.00
37878;BME280;23715;53.652;8.516;2022-09-16T11:07:04;100505.30;;;15.97;100.00
37878;BME280;23715;53.652;8.516;2022-09-16T11:22:40;100453.08;;;16.54;100.00
37878;BME280;23715;53.652;8.516;2022-09-16T11:43:58;100450.91;;;17.14;100.00
37878;BME280;23715;53.652;8.516;2022-09-16T11:59:50;100453.59;;;17.00;100.00
37878;BME280;23715;53.652;8.516;2022-09-16T12:04:40;100460.16;;;16.36;100.00
37878;BME280;23715;53.652;8.516;2022-09-16T12:09:48;100455.30;;;16.54;100.00
37878;BME280;23715;53.652;8.516;2022-09-16T12:15:04;100453.00;;;16.66;100.00
37878;BME280;23715;53.652;8.516;2022-09-16T12:20:05;100463.13;;;16.49;100.00
37878;BME280;23715;53.652;8.516;2022-09-16T12:25:27;100455.88;;;15.67;100.00
37878;BME280;23715;53.652;8.516;2022-09-16T12:30:30;100468.18;;;16.56;100.00
37878;BME280;23715;53.652;8.516;2022-09-16T12:35:38;100460.65;;;16.08;100.00
37878;BME280;23715;53.652;8.516;2022-09-16T13:02:23;100499.85;;;15.29;100.00
37878;BME280;23715;53.652;8.516;2022-09-16T13:07:26;100464.59;;;15.41;100.00
37878;BME280;23715;53.652;8.516;2022-09-16T13:12:28;100452.61;;;15.92;100.00
37878;BME280;23715;53.652;8.516;2022-09-16T13:17:37;100436.75;;;16.08;100.00
37878;BME280;23715;53.652;8.516;2022-09-16T13:33:27;100441.17;;;16.36;100.00
37878;BME280;23715;53.652;8.516;2022-09-16T13:38:39;100408.95;;;16.56;100.00
37878;BME280;23715;53.652;8.516;2022-09-16T13:43:49;100437.89;;;16.68;100.00
37878;BME280;23715;53.652;8.516;2022-09-16T13:48:58;100405.41;;;16.32;100.00
37878;BME280;23715;53.652;8.516;2022-09-16T13:53:59;100418.24;;;16.38;100.00
37878;BME280;23715;53.652;8.516;2022-09-16T13:59:34;100411.83;;;16.58;100.00
37878;BME280;23715;53.652;8.516;2022-09-16T14:09:59;100426.27;;;16.32;100.00
37878;BME280;23715;53.652;8.516;2022-09-16T14:15:01;100462.38;;;16.05;100.00
37878;BME280;23715;53.652;8.516;2022-09-16T14:20:02;100462.38;;;16.05;100.00
37878;BME280;23715;53.652;8.516;2022-09-16T14:25:22;100486.44;;;16.04;100.00
37878;BME280;23715;53.652;8.516;2022-09-16T14:30:13;100488.39;;;16.23;100.00
37878;BME280;23715;53.652;8.516;2022-09-16T14:35:19;100481.35;;;16.36;100.00
37878;BME280;23715;53.652;8.516;2022-09-16T14:40:22;100479.83;;;16.03;100.00
37878;BME280;23715;53.652;8.516;2022-09-16T14:45:23;100472.89;;;16.31;100.00
37878;BME280;23715;53.652;8.516;2022-09-16T14:50:26;100472.89;;;16.31;100.00
37878;BME280;23715;53.652;8.516;2022-09-16T14:55:29;100480.42;;;16.48;100.00
37878;BME280;23715;53.652;8.516;2022-09-16T15:00:38;100487.35;;;16.24;100.00
37878;BME280;23715;53.652;8.516;2022-09-16T15:05:36;100491.02;;;16.35;100.00
37878;BME280;23715;53.652;8.516;2022-09-16T15:10:37;100456.52;;;16.48;100.00
37878;BME280;23715;53.652;8.516;2022-09-16T15:15:51;100479.02;;;16.29;100.00
37878;BME280;23715;53.652;8.516;2022-09-16T15:20:41;100482.19;;;16.37;100.00
37878;BME280;23715;53.652;8.516;2022-09-16T15:30:58;100490.45;;;16.71;100.00
37878;BME280;23715;53.652;8.516;2022-09-16T15:36:00;100501.82;;;16.47;100.00
37878;BME280;23715;53.652;8.516;2022-09-16T15:41:05;100511.03;;;16.38;100.00
37878;BME280;23715;53.652;8.516;2022-09-16T15:46:18;100529.04;;;16.31;100.00
37878;BME280;23715;53.652;8.516;2022-09-16T15:51:35;100529.78;;;16.20;100.00
37878;BME280;23715;53.652;8.516;2022-09-16T16:01:48;100495.26;;;16.65;100.00
37878;BME280;23715;53.652;8.516;2022-09-16T16:06:57;100498.22;;;16.82;100.00
37878;BME280;23715;53.652;8.516;2022-09-16T16:12:07;100486.45;;;17.09;100.00
37878;BME280;23715;53.652;8.516;2022-09-16T16:17:09;100470.14;;;16.90;100.00
37878;BME280;23715;53.652;8.516;2022-09-16T16:22:10;100457.61;;;17.08;100.00
37878;BME280;23715;53.652;8.516;2022-09-16T16:27:10;100429.14;;;17.00;100.00
37878;BME280;23715;53.652;8.516;2022-09-16T16:32:13;100407.95;;;16.76;100.00
37878;BME280;23715;53.652;8.516;2022-09-16T16:37:14;100414.55;;;17.64;100.00
37878;BME280;23715;53.652;8.516;2022-09-16T16:42:16;100421.00;;;17.63;100.00
37878;BME280;23715;53.652;8.516;2022-09-16T16:47:16;100404.51;;;17.50;100.00
37878;BME280;23715;53.652;8.516;2022-09-16T16:52:16;100409.70;;;17.70;100.00
37878;BME280;23715;53.652;8.516;2022-09-16T16:57:16;100401.85;;;17.71;100.00
37878;BME280;23715;53.652;8.516;2022-09-16T17:02:16;100406.16;;;17.81;100.00
37878;BME280;23715;53.652;8.516;2022-09-16T17:07:17;100412.30;;;17.79;100.00
37878;BME280;23715;53.652;8.516;2022-09-16T17:12:17;100401.06;;;18.07;100.00
37878;BME280;23715;53.652;8.516;2022-09-16T17:17:18;100399.70;;;18.07;100.00
37878;BME280;23715;53.652;8.516;2022-09-16T17:22:18;100408.70;;;17.97;100.00
37878;BME280;23715;53.652;8.516;2022-09-16T17:27:18;100412.44;;;17.96;100.00
37878;BME280;23715;53.652;8.516;2022-09-16T17:32:18;100404.58;;;17.71;100.00
37878;BME280;23715;53.652;8.516;2022-09-16T17:37:19;100440.78;;;17.42;100.00
37878;BME280;23715;53.652;8.516;2022-09-16T17:42:19;100459.48;;;17.56;100.00
37878;BME280;23715;53.652;8.516;2022-09-16T17:47:20;100470.42;;;17.67;100.00
37878;BME280;23715;53.652;8.516;2022-09-16T17:52:20;100467.09;;;17.61;100.00
37878;BME280;23715;53.652;8.516;2022-09-16T17:57:20;100478.05;;;17.67;100.00
37878;BME280;23715;53.652;8.516;2022-09-16T18:02:22;100465.21;;;17.61;100.00
37878;BME280;23715;53.652;8.516;2022-09-16T18:07:23;100462.18;;;17.90;100.00
37878;BME280;23715;53.652;8.516;2022-09-16T18:12:23;100466.34;;;17.82;100.00
37878;BME280;23715;53.652;8.516;2022-09-16T18:17:24;100473.22;;;17.73;100.00
37878;BME280;23715;53.652;8.516;2022-09-16T18:22:24;100464.31;;;17.50;100.00
37878;BME280;23715;53.652;8.516;2022-09-16T18:27:25;100490.59;;;17.39;100.00
37878;BME280;23715;53.652;8.516;2022-09-16T18:32:25;100487.47;;;17.75;100.00
37878;BME280;23715;53.652;8.516;2022-09-16T18:37:27;100493.09;;;17.44;100.00
37878;BME280;23715;53.652;8.516;2022-09-16T18:42:28;100497.30;;;17.47;100.00
37878;BME280;23715;53.652;8.516;2022-09-16T18:47:28;100490.44;;;17.55;100.00
37878;BME280;23715;53.652;8.516;2022-09-16T18:52:29;100497.30;;;17.47;100.00
37878;BME280;23715;53.652;8.516;2022-09-16T18:57:29;100512.74;;;17.31;100.00
37878;BME280;23715;53.652;8.516;2022-09-16T19:02:30;100489.62;;;16.70;100.00
37878;BME280;23715;53.652;8.516;2022-09-16T19:07:30;100510.54;;;16.62;100.00
37878;BME280;23715;53.652;8.516;2022-09-16T19:12:30;100506.34;;;17.05;100.00
37878;BME280;23715;53.652;8.516;2022-09-16T19:17:31;100528.95;;;16.74;100.00
37878;BME280;23715;53.652;8.516;2022-09-16T19:22:32;100549.70;;;16.98;100.00
37878;BME280;23715;53.652;8.516;2022-09-16T19:27:33;100546.67;;;17.16;100.00
37878;BME280;23715;53.652;8.516;2022-09-16T19:32:35;100541.41;;;16.65;100.00
37878;BME280;23715;53.652;8.516;2022-09-16T19:37:36;100538.49;;;17.02;100.00
37878;BME280;23715;53.652;8.516;2022-09-16T19:42:36;100557.33;;;16.72;100.00
37878;BME280;23715;53.652;8.516;2022-09-16T19:47:37;100550.95;;;17.11;100.00
37878;BME280;23715;53.652;8.516;2022-09-16T19:52:38;100546.19;;;16.90;100.00
37878;BME280;23715;53.652;8.516;2022-09-16T19:57:38;100552.00;;;17.10;100.00
37878;BME280;23715;53.652;8.516;2022-09-16T20:02:41;100573.27;;;16.71;100.00
37878;BME280;23715;53.652;8.516;2022-09-16T20:07:42;100594.19;;;16.27;100.00
37878;BME280;23715;53.652;8.516;2022-09-16T20:12:42;100586.72;;;16.29;100.00
37878;BME280;23715;53.652;8.516;2022-09-16T20:17:42;100585.58;;;16.58;100.00
37878;BME280;23715;53.652;8.516;2022-09-16T20:22:42;100600.59;;;16.38;100.00
37878;BME280;23715;53.652;8.516;2022-09-16T20:27:43;100620.00;;;16.18;100.00
37878;BME280;23715;53.652;8.516;2022-09-16T20:32:43;100634.47;;;16.46;100.00
37878;BME280;23715;53.652;8.516;2022-09-16T20:37:44;100642.66;;;16.38;100.00
37878;BME280;23715;53.652;8.516;2022-09-16T20:42:44;100651.38;;;16.65;100.00
37878;BME280;23715;53.652;8.516;2022-09-16T20:47:48;100645.89;;;16.73;100.00
37878;BME280;23715;53.652;8.516;2022-09-16T20:52:47;100639.09;;;16.85;100.00
37878;BME280;23715;53.652;8.516;2022-09-16T20:57:48;100633.03;;;16.67;100.00
37878;BME280;23715;53.652;8.516;2022-09-16T21:02:56;100621.97;;;16.72;100.00
37878;BME280;23715;53.652;8.516;2022-09-16T21:07:58;100627.90;;;16.76;100.00
37878;BME280;23715;53.652;8.516;2022-09-16T21:12:58;100635.41;;;16.70;100.00
37878;BME280;23715;53.652;8.516;2022-09-16T21:17:58;100629.40;;;16.78;100.00
37878;BME280;23715;53.652;8.516;2022-09-16T21:22:59;100649.42;;;16.82;100.00
37878;BME280;23715;53.652;8.516;2022-09-16T21:27:59;100671.19;;;16.30;100.00
37878;BME280;23715;53.652;8.516;2022-09-16T21:32:59;100664.34;;;16.42;100.00
37878;BME280;23715;53.652;8.516;2022-09-16T21:38:00;100649.03;;;15.89;100.00
37878;BME280;23715;53.652;8.516;2022-09-16T21:43:00;100659.31;;;16.27;100.00
37878;BME280;23715;53.652;8.516;2022-09-16T21:48:01;100638.71;;;16.45;100.00
37878;BME280;23715;53.652;8.516;2022-09-16T21:53:01;100661.34;;;16.25;100.00
37878;BME280;23715;53.652;8.516;2022-09-16T21:58:01;100653.96;;;15.94;100.00
37878;BME280;23715;53.652;8.516;2022-09-16T22:03:03;100662.67;;;16.33;100.00
37878;BME280;23715;53.652;8.516;2022-09-16T22:08:06;100669.70;;;16.63;100.00
37878;BME280;23715;53.652;8.516;2022-09-16T22:13:07;100671.02;;;16.71;100.00
37878;BME280;23715;53.652;8.516;2022-09-16T22:18:08;100654.53;;;16.33;100.00
37878;BME280;23715;53.652;8.516;2022-09-16T22:23:08;100664.91;;;16.33;100.00
37878;BME280;23715;53.652;8.516;2022-09-16T22:28:09;100666.29;;;16.17;100.00
37878;BME280;23715;53.652;8.516;2022-09-16T22:33:09;100668.79;;;16.31;100.00
37878;BME280;23715;53.652;8.516;2022-09-16T22:38:09;100664.81;;;16.54;100.00
37878;BME280;23715;53.652;8.516;2022-09-16T22:43:09;100659.47;;;16.73;100.00
37878;BME280;23715;53.652;8.516;2022-09-16T22:48:10;100657.83;;;16.59;100.00
37878;BME280;23715;53.652;8.516;2022-09-16T22:53:10;100662.32;;;16.40;100.00
37878;BME280;23715;53.652;8.516;2022-09-16T22:58:10;100662.67;;;16.41;100.00
37878;BME280;23715;53.652;8.516;2022-09-16T23:03:10;100674.31;;;16.54;100.00
37878;BME280;23715;53.652;8.516;2022-09-16T23:08:10;100661.69;;;16.69;100.00
37878;BME280;23715;53.652;8.516;2022-09-16T23:13:16;100668.95;;;16.81;100.00
37878;BME280;23715;53.652;8.516;2022-09-16T23:18:12;100662.73;;;17.08;100.00
37878;BME280;23715;53.652;8.516;2022-09-16T23:23:13;100665.91;;;17.15;100.00
37878;BME280;23715;53.652;8.516;2022-09-16T23:28:13;100673.63;;;17.00;100.00
37878;BME280;23715;53.652;8.516;2022-09-16T23:33:13;100658.35;;;16.59;100.00
37878;BME280;23715;53.652;8.516;2022-09-16T23:38:14;100658.35;;;16.59;100.00
37878;BME280;23715;53.652;8.516;2022-09-16T23:43:14;100660.59;;;16.51;100.00
37878;BME280;23715;53.652;8.516;2022-09-16T23:48:15;100657.52;;;16.58;100.00
37878;BME280;23715;53.652;8.516;2022-09-16T23:53:15;100670.65;;;16.34;100.00
37878;BME280;23715;53.652;8.516;2022-09-16T23:58:16;100680.20;;;16.10;100.00
